Time;durP1;ratioP1;P1;durP2;ratioP2;P2;SDS_P1;SDS_P2;PMS_P1;PMS_P2;Temp;Humidity;BMP_temperature;BMP_pressure;BME280_temperature;BME280_humidity;BME280_pressure;Samples;Min_cycle;Max_cycle;Signal;HPM_P1;HPM_P2
2023/08/29 00:02:11;;;;;;;38.73;18.33;;;19.70;99.90;;;;;;5088135;28;20285;-65
2023/08/29 00:04:59;;;;;;;34.43;13.73;;;19.60;99.90;;;;;;5083379;28;20601;-66
2023/08/29 00:07:47;;;;;;;25.47;14.20;;;19.60;99.90;;;;;;5084707;28;20466;-65
2023/08/29 00:10:36;;;;;;;28.27;14.50;;;19.40;99.90;;;;;;5080144;28;20215;-67
2023/08/29 00:13:23;;;;;;;30.60;16.27;;;19.10;99.90;;;;;;5082854;28;20195;-65
2023/08/29 00:16:12;;;;;;;29.37;16.70;;;18.90;99.90;;;;;;5083823;28;20211;-65
2023/08/29 00:19:00;;;;;;;32.53;18.50;;;18.80;99.90;;;;;;5087473;28;20193;-65
2023/08/29 00:21:47;;;;;;;32.60;19.67;;;18.60;99.90;;;;;;5080773;28;20200;-65
2023/08/29 00:24:36;;;;;;;31.33;17.90;;;18.50;99.90;;;;;;5085079;28;20592;-65
2023/08/29 00:27:23;;;;;;;31.70;18.20;;;18.50;99.90;;;;;;5087729;28;20831;-65
2023/08/29 00:30:12;;;;;;;28.57;18.07;;;18.40;99.90;;;;;;5082784;28;20192;-65
2023/08/29 00:32:59;;;;;;;24.73;17.03;;;18.50;99.90;;;;;;5096132;28;20196;-66
2023/08/29 00:35:47;;;;;;;28.07;17.00;;;18.40;99.90;;;;;;5092503;28;20593;-65
2023/08/29 00:38:34;;;;;;;28.27;17.40;;;18.40;99.90;;;;;;5088425;28;20648;-66
2023/08/29 00:41:23;;;;;;;30.40;17.93;;;18.40;99.90;;;;;;5088595;28;20292;-66
2023/08/29 00:44:10;;;;;;;29.30;18.90;;;18.30;99.90;;;;;;5082714;28;20276;-66
2023/08/29 00:46:57;;;;;;;34.17;19.53;;;18.30;99.90;;;;;;5088198;28;20218;-66
2023/08/29 00:49:45;;;;;;;39.77;22.37;;;18.40;99.90;;;;;;5090487;28;20202;-65
2023/08/29 00:52:32;;;;;;;40.37;22.00;;;18.40;99.90;;;;;;5086833;28;20224;-66
2023/08/29 00:55:19;;;;;;;42.13;23.37;;;18.30;99.90;;;;;;5083842;28;20679;-66
2023/08/29 00:58:08;;;;;;;43.30;25.03;;;18.30;99.90;;;;;;5088219;28;20218;-65
2023/08/29 01:00:55;;;;;;;51.47;25.60;;;18.40;99.90;;;;;;5086921;28;20204;-65
2023/08/29 01:03:42;;;;;;;42.53;25.17;;;18.30;99.90;;;;;;5087656;28;20380;-65
2023/08/29 01:06:30;;;;;;;50.90;24.53;;;18.30;99.90;;;;;;5085840;28;20226;-65
2023/08/29 01:09:18;;;;;;;59.33;26.40;;;18.30;99.90;;;;;;5084545;28;20200;-65
2023/08/29 01:12:10;;;;;;;76.17;27.60;;;18.10;99.90;;;;;;5087717;28;20214;-65
2023/08/29 01:15:00;;;;;;;87.33;25.70;;;18.10;99.90;;;;;;5094711;28;20582;-65
2023/08/29 01:17:49;;;;;;;102.27;26.30;;;18.00;99.90;;;;;;5086533;28;20204;-66
2023/08/29 01:20:37;;;;;;;81.03;27.07;;;18.00;99.90;;;;;;5090817;28;20673;-66
2023/08/29 01:23:31;;;;;;;99.97;28.60;;;18.00;99.90;;;;;;5085298;28;20564;-65
2023/08/29 01:26:20;;;;;;;76.17;26.80;;;18.00;99.90;;;;;;5085499;28;20235;-65
2023/08/29 01:29:07;;;;;;;110.57;27.87;;;17.90;99.90;;;;;;5084564;28;20553;-66
2023/08/29 01:31:55;;;;;;;58.97;27.17;;;17.90;99.90;;;;;;5088269;28;20210;-65
2023/08/29 01:34:43;;;;;;;139.77;26.77;;;17.80;99.90;;;;;;5084745;28;20216;-65
2023/08/29 01:37:30;;;;;;;139.83;28.07;;;17.80;99.90;;;;;;5085543;28;20195;-65
2023/08/29 01:40:18;;;;;;;256.23;25.80;;;17.70;99.90;;;;;;5088601;28;20195;-66
2023/08/29 01:43:06;;;;;;;229.30;25.57;;;17.70;99.90;;;;;;5092901;28;20227;-65
2023/08/29 01:45:54;;;;;;;254.20;27.73;;;17.70;99.90;;;;;;5091608;28;20724;-65
2023/08/29 01:48:41;;;;;;;196.10;24.83;;;17.50;99.90;;;;;;5084144;28;20572;-65
2023/08/29 01:51:28;;;;;;;67.00;24.53;;;17.50;99.90;;;;;;5091528;28;20657;-65
2023/08/29 01:54:15;;;;;;;66.27;24.87;;;17.50;99.90;;;;;;5083343;28;20206;-65
2023/08/29 01:57:03;;;;;;;62.57;24.23;;;17.50;99.90;;;;;;5083470;28;20209;-65
2023/08/29 01:59:51;;;;;;;131.97;27.50;;;17.40;99.90;;;;;;5086429;28;20541;-65
2023/08/29 02:02:39;;;;;;;109.60;25.87;;;17.40;99.90;;;;;;5086422;28;20207;-65
2023/08/29 02:05:26;;;;;;;121.63;25.37;;;17.40;99.90;;;;;;5083088;28;20323;-65
2023/08/29 02:08:13;;;;;;;173.70;26.33;;;17.40;99.90;;;;;;5083100;28;20206;-65
2023/08/29 02:11:01;;;;;;;179.37;25.90;;;17.40;99.90;;;;;;5089107;28;20332;-66
2023/08/29 02:13:48;;;;;;;238.50;29.30;;;17.20;99.90;;;;;;5088891;28;20214;-65
2023/08/29 02:16:36;;;;;;;244.03;28.63;;;17.30;99.90;;;;;;5086609;28;20203;-65
2023/08/29 02:19:26;;;;;;;89.60;23.57;;;17.30;99.90;;;;;;5077577;28;20196;-65
2023/08/29 02:22:13;;;;;;;92.33;24.73;;;17.20;99.90;;;;;;5079879;28;20230;-65
2023/08/29 02:25:04;;;;;;;57.90;25.00;;;17.20;99.90;;;;;;5087479;28;20724;-65
2023/08/29 02:27:51;;;;;;;66.37;26.10;;;17.20;99.90;;;;;;5089154;28;20248;-66
2023/08/29 02:30:38;;;;;;;62.70;27.97;;;17.20;99.90;;;;;;5082498;28;20204;-66
2023/08/29 02:33:27;;;;;;;70.87;27.03;;;17.20;99.90;;;;;;5086572;28;20208;-65
2023/08/29 02:36:14;;;;;;;74.53;28.53;;;17.20;99.90;;;;;;5087400;28;20198;-65
2023/08/29 02:39:02;;;;;;;75.77;27.77;;;17.20;99.90;;;;;;5083181;28;20728;-65
2023/08/29 02:41:49;;;;;;;91.00;28.70;;;17.20;99.90;;;;;;5088026;28;20578;-65
2023/08/29 02:44:36;;;;;;;98.53;29.13;;;17.30;99.90;;;;;;5096990;28;20225;-65
2023/08/29 02:47:24;;;;;;;88.40;28.83;;;17.30;99.90;;;;;;5083232;28;20203;-65
2023/08/29 02:50:12;;;;;;;76.73;28.40;;;17.20;99.90;;;;;;5084983;28;20560;-65
2023/08/29 02:52:59;;;;;;;82.60;27.90;;;17.20;99.90;;;;;;5088129;28;20241;-65
2023/08/29 02:55:47;;;;;;;58.67;27.37;;;17.20;99.90;;;;;;5084899;28;20248;-65
2023/08/29 02:58:34;;;;;;;66.30;26.80;;;17.20;99.90;;;;;;5081485;28;20205;-65
2023/08/29 03:01:21;;;;;;;109.60;28.97;;;17.20;99.90;;;;;;5081647;28;20662;-65
2023/08/29 03:04:08;;;;;;;70.37;27.80;;;17.10;99.90;;;;;;5085549;28;20238;-66
2023/08/29 03:06:57;;;;;;;75.93;28.20;;;17.10;99.90;;;;;;5087062;28;20215;-65
2023/08/29 03:09:44;;;;;;;94.30;28.80;;;17.10;99.90;;;;;;5084497;28;20247;-65
2023/08/29 03:12:31;;;;;;;84.83;29.53;;;17.10;99.90;;;;;;5076575;28;20208;-65
2023/08/29 03:15:19;;;;;;;92.97;29.37;;;17.10;99.90;;;;;;5081643;28;20195;-65
2023/08/29 03:18:06;;;;;;;114.10;31.13;;;17.10;99.90;;;;;;5084477;28;20214;-65
2023/08/29 03:20:53;;;;;;;90.80;29.87;;;17.10;99.90;;;;;;5086679;28;20216;-65
2023/08/29 03:23:42;;;;;;;113.97;31.80;;;17.10;99.90;;;;;;5083844;28;20277;-65
2023/08/29 03:26:29;;;;;;;100.30;31.50;;;17.10;99.90;;;;;;5087269;28;20651;-65
2023/08/29 03:29:16;;;;;;;91.63;30.50;;;17.10;99.90;;;;;;5078473;28;20735;-65
2023/08/29 03:32:04;;;;;;;117.13;29.53;;;17.10;99.90;;;;;;5082351;28;20208;-65
2023/08/29 03:34:54;;;;;;;100.57;30.23;;;17.00;99.90;;;;;;5089053;28;20558;-66
2023/08/29 03:37:41;;;;;;;88.70;30.73;;;17.10;99.90;;;;;;5082307;28;20191;-65
2023/08/29 03:40:30;;;;;;;93.73;31.13;;;17.00;99.90;;;;;;5081969;28;20286;-65
2023/08/29 03:43:17;;;;;;;92.00;32.37;;;17.10;99.90;;;;;;5083815;28;20197;-65
2023/08/29 03:46:05;;;;;;;120.00;31.53;;;17.20;99.90;;;;;;5086285;28;20893;-66
2023/08/29 03:48:52;;;;;;;91.47;32.20;;;17.20;99.90;;;;;;5085851;28;20701;-65
2023/08/29 03:51:40;;;;;;;91.57;30.67;;;17.20;99.90;;;;;;5081478;28;20722;-66
2023/08/29 03:54:27;;;;;;;83.70;27.47;;;17.30;99.90;;;;;;5083164;28;20203;-65
2023/08/29 03:57:15;;;;;;;67.20;27.90;;;17.20;99.90;;;;;;5080712;28;20207;-65
2023/08/29 04:00:08;;;;;;;67.13;28.77;;;17.10;99.90;;;;;;5083126;28;20198;-66
2023/08/29 04:02:56;;;;;;;56.90;25.33;;;17.20;99.90;;;;;;5079480;28;20200;-65
2023/08/29 04:05:43;;;;;;;58.90;26.03;;;17.20;99.90;;;;;;5083645;28;20287;-65
2023/08/29 04:08:30;;;;;;;62.03;25.67;;;17.20;99.90;;;;;;5079634;28;20219;-66
2023/08/29 04:11:17;;;;;;;60.83;24.13;;;17.10;99.90;;;;;;5079521;28;20210;-66
2023/08/29 04:14:06;;;;;;;74.00;22.10;;;17.10;99.90;;;;;;5088992;28;20581;-65
2023/08/29 04:16:53;;;;;;;56.67;21.90;;;17.10;99.90;;;;;;5084965;28;20211;-65
2023/08/29 04:19:40;;;;;;;48.70;22.17;;;17.10;99.90;;;;;;5078687;28;20207;-65
2023/08/29 04:22:28;;;;;;;45.67;20.53;;;17.10;99.90;;;;;;5081274;28;20669;-66
2023/08/29 04:25:15;;;;;;;43.87;19.13;;;17.10;99.90;;;;;;5079353;28;20240;-66
2023/08/29 04:28:02;;;;;;;34.70;17.50;;;17.10;99.90;;;;;;5086064;28;20197;-65
2023/08/29 04:30:51;;;;;;;31.43;17.43;;;17.00;99.90;;;;;;5081080;28;20804;-65
2023/08/29 04:33:38;;;;;;;32.67;17.67;;;17.00;99.90;;;;;;5081434;28;20577;-65
2023/08/29 04:36:26;;;;;;;26.77;16.30;;;17.10;99.90;;;;;;5071973;28;20192;-65
2023/08/29 04:39:13;;;;;;;30.27;17.07;;;17.20;99.90;;;;;;5081908;28;20677;-65
2023/08/29 04:42:00;;;;;;;29.67;17.33;;;17.10;99.90;;;;;;5083923;28;20212;-66
2023/08/29 04:44:47;;;;;;;31.33;17.30;;;17.20;99.90;;;;;;5085052;28;20227;-65
2023/08/29 04:47:36;;;;;;;31.97;18.63;;;17.20;99.90;;;;;;5080790;28;20220;-65
2023/08/29 04:50:25;;;;;;;34.93;19.07;;;17.20;99.90;;;;;;5081036;28;20822;-65
2023/08/29 04:53:12;;;;;;;31.47;18.73;;;17.30;99.90;;;;;;5081530;28;20223;-66
2023/08/29 04:56:01;;;;;;;28.10;18.83;;;17.40;99.90;;;;;;5083411;28;20912;-65
2023/08/29 04:58:48;;;;;;;32.33;19.40;;;17.50;99.90;;;;;;5083015;28;20200;-66
2023/08/29 05:01:36;;;;;;;34.43;19.17;;;17.60;99.90;;;;;;5084026;28;20199;-65
2023/08/29 05:04:24;;;;;;;32.17;19.70;;;17.70;99.90;;;;;;5079079;28;20227;-65
2023/08/29 05:07:11;;;;;;;34.20;19.30;;;17.70;99.90;;;;;;5088661;28;20206;-65
2023/08/29 05:09:58;;;;;;;34.43;19.37;;;17.80;99.90;;;;;;5081792;28;20210;-65
2023/08/29 05:12:46;;;;;;;34.20;21.33;;;17.90;99.90;;;;;;5088150;28;20705;-65
2023/08/29 05:15:33;;;;;;;29.10;16.93;;;18.00;99.90;;;;;;5090248;28;21748;-65
2023/08/29 05:18:20;;;;;;;24.77;16.10;;;18.10;99.90;;;;;;5090953;28;20299;-66
2023/08/29 05:21:09;;;;;;;22.73;15.27;;;18.20;99.90;;;;;;5085603;28;20218;-75
2023/08/29 05:23:57;;;;;;;26.57;15.73;;;18.20;99.90;;;;;;5096833;28;20200;-74
2023/08/29 05:26:45;;;;;;;29.53;17.87;;;18.10;99.90;;;;;;5084756;28;20199;-73
2023/08/29 05:29:32;;;;;;;29.90;18.70;;;18.20;99.90;;;;;;5087508;28;20274;-74
2023/08/29 05:32:19;;;;;;;27.50;16.97;;;18.20;99.90;;;;;;5087967;28;20287;-74
2023/08/29 05:35:07;;;;;;;32.00;19.10;;;18.30;99.90;;;;;;5087169;28;20234;-73
2023/08/29 05:37:56;;;;;;;27.23;16.93;;;18.30;99.90;;;;;;5084208;28;20196;-73
2023/08/29 05:40:43;;;;;;;26.83;17.43;;;18.50;99.90;;;;;;5082003;28;20216;-73
2023/08/29 05:43:30;;;;;;;19.57;14.23;;;18.60;99.90;;;;;;5089733;28;20215;-74
2023/08/29 05:46:18;;;;;;;22.27;13.87;;;18.70;99.90;;;;;;5081470;28;20213;-73
2023/08/29 05:49:05;;;;;;;19.37;13.07;;;18.70;99.90;;;;;;5082378;28;20663;-73
2023/08/29 05:51:52;;;;;;;21.27;13.73;;;18.70;99.90;;;;;;5087130;28;20252;-73
2023/08/29 05:54:42;;;;;;;21.83;13.30;;;18.70;99.90;;;;;;5083057;28;20652;-73
2023/08/29 05:57:30;;;;;;;21.57;13.83;;;18.70;99.90;;;;;;5083012;28;20207;-73
2023/08/29 06:00:19;;;;;;;21.73;13.43;;;18.70;99.90;;;;;;5077609;28;20256;-73
2023/08/29 06:03:07;;;;;;;21.43;13.63;;;18.80;99.90;;;;;;5086458;28;20232;-73
2023/08/29 06:05:55;;;;;;;20.17;12.50;;;18.80;99.90;;;;;;5079752;28;20264;-73
2023/08/29 06:08:42;;;;;;;19.43;13.37;;;18.60;99.90;;;;;;5088505;28;20322;-73
2023/08/29 06:11:30;;;;;;;19.30;12.63;;;18.60;99.90;;;;;;5090978;28;20208;-73
2023/08/29 06:14:18;;;;;;;18.67;12.17;;;18.60;99.90;;;;;;5086090;28;20208;-74
2023/08/29 06:17:05;;;;;;;17.80;12.90;;;18.80;99.90;;;;;;5082800;28;20195;-73
2023/08/29 06:19:52;;;;;;;18.30;11.77;;;18.80;99.90;;;;;;5074315;28;20214;-73
2023/08/29 06:22:39;;;;;;;18.73;12.83;;;18.90;99.90;;;;;;5082330;28;20215;-73
2023/08/29 06:25:27;;;;;;;19.80;13.30;;;18.90;99.90;;;;;;5093324;28;20514;-73
2023/08/29 06:28:16;;;;;;;18.90;13.17;;;18.90;99.90;;;;;;5087764;28;20612;-72
2023/08/29 06:31:07;;;;;;;20.80;13.40;;;18.90;99.90;;;;;;5082586;28;20274;-73
2023/08/29 06:33:54;;;;;;;23.60;14.03;;;18.80;99.90;;;;;;4722613;27;536726;-73
2023/08/29 06:36:41;;;;;;;21.40;15.47;;;18.40;99.90;;;;;;4451390;28;661025;-72
2023/08/29 06:39:29;;;;;;;25.53;16.07;;;18.10;99.90;;;;;;4434982;27;660536;-72
2023/08/29 06:42:16;;;;;;;23.10;15.07;;;18.10;99.90;;;;;;4446321;28;660636;-72
2023/08/29 06:45:06;;;;;;;25.53;14.93;;;18.10;99.90;;;;;;4429803;27;660739;-73
2023/08/29 06:47:53;;;;;;;16.87;12.40;;;17.90;99.90;;;;;;4432693;27;660999;-73
2023/08/29 06:50:40;;;;;;;28.37;15.17;;;17.80;99.90;;;;;;4451723;27;661249;-72
2023/08/29 06:53:28;;;;;;;26.83;13.43;;;17.60;99.90;;;;;;4433561;27;661207;-73
2023/08/29 06:56:16;;;;;;;25.33;13.67;;;17.60;99.90;;;;;;4455745;27;660905;-73
2023/08/29 06:59:03;;;;;;;19.50;11.30;;;17.70;99.90;;;;;;4435722;27;660778;-73
2023/08/29 07:01:52;;;;;;;19.50;10.00;;;17.90;99.90;;;;;;4458172;27;661773;-72
2023/08/29 07:04:39;;;;;;;15.17;8.90;;;18.00;99.90;;;;;;4434114;27;661336;-73
2023/08/29 07:07:26;;;;;;;9.83;5.87;;;18.10;99.90;;;;;;4452510;27;659044;-72
2023/08/29 07:10:14;;;;;;;7.70;5.70;;;18.20;99.90;;;;;;4436932;27;659342;-73
2023/08/29 07:13:01;;;;;;;7.27;5.70;;;18.30;99.90;;;;;;4459682;27;659465;-74
2023/08/29 07:15:48;;;;;;;6.63;4.93;;;18.30;99.90;;;;;;4432933;27;659055;-73
2023/08/29 07:18:37;;;;;;;6.23;4.77;;;18.40;99.90;;;;;;4463256;27;659630;-73
2023/08/29 07:21:24;;;;;;;5.50;4.77;;;18.50;99.90;;;;;;4441573;27;658590;-73
2023/08/29 07:24:11;;;;;;;5.83;4.50;;;18.70;99.90;;;;;;4459333;27;658423;-73
2023/08/29 07:26:58;;;;;;;8.23;4.40;;;18.70;99.90;;;;;;4440009;27;658352;-73
2023/08/29 07:29:45;;;;;;;7.20;4.30;;;18.80;99.90;;;;;;4454350;27;658812;-73
2023/08/29 07:32:33;;;;;;;9.10;5.90;;;18.80;99.90;;;;;;4436720;27;659029;-73
2023/08/29 07:35:21;;;;;;;11.00;7.10;;;18.90;99.90;;;;;;4455968;27;659816;-73
2023/08/29 07:38:09;;;;;;;7.27;5.60;;;19.00;99.90;;;;;;4436595;27;659827;-73
2023/08/29 07:40:57;;;;;;;8.90;6.50;;;19.40;99.90;;;;;;4453140;27;658431;-73
2023/08/29 07:43:44;;;;;;;10.63;6.87;;;19.70;99.90;;;;;;4437618;27;658698;-73
2023/08/29 07:46:31;;;;;;;9.53;6.87;;;20.00;99.90;;;;;;4457268;27;659504;-73
2023/08/29 07:49:20;;;;;;;10.67;7.10;;;20.20;99.90;;;;;;4436737;27;659335;-73
2023/08/29 07:52:09;;;;;;;10.73;7.57;;;20.50;99.90;;;;;;4447950;27;659980;-73
2023/08/29 07:54:58;;;;;;;9.77;7.70;;;20.80;99.90;;;;;;4448558;27;661297;-72
2023/08/29 07:57:45;;;;;;;12.33;7.83;;;21.30;99.90;;;;;;4430754;27;659845;-72
2023/08/29 08:00:33;;;;;;;12.77;7.45;;;21.60;99.90;;;;;;4434939;28;659800;-72
2023/08/29 08:03:20;;;;;;;9.23;7.20;;;21.60;99.90;;;;;;4453407;27;660654;-71
2023/08/29 08:06:07;;;;;;;5.73;5.10;;;21.70;99.90;;;;;;4453821;28;658612;-72
2023/08/29 08:08:56;;;;;;;5.03;4.53;;;21.80;99.90;;;;;;4459803;28;659906;-71
2023/08/29 08:11:43;;;;;;;7.10;4.97;;;21.90;99.90;;;;;;4436511;28;659224;-72
2023/08/29 08:14:30;;;;;;;7.27;4.50;;;22.10;99.90;;;;;;4453157;27;659334;-72
2023/08/29 08:17:17;;;;;;;6.50;4.30;;;22.10;99.90;;;;;;4435062;27;658623;-71
2023/08/29 08:20:07;;;;;;;5.47;4.40;;;22.40;99.90;;;;;;4459648;28;659128;-72
2023/08/29 08:22:55;;;;;;;7.33;4.40;;;22.60;99.90;;;;;;4434702;28;659493;-71
2023/08/29 08:25:44;;;;;;;5.75;4.47;;;22.90;99.90;;;;;;4446082;27;658377;-72
2023/08/29 08:28:31;;;;;;;7.15;4.53;;;23.30;99.90;;;;;;4451988;28;658764;-72
2023/08/29 08:31:19;;;;;;;5.68;4.07;;;23.70;99.90;;;;;;4435862;28;658550;-72
2023/08/29 08:34:07;;;;;;;5.97;4.22;;;23.90;99.90;;;;;;4451020;27;659426;-71
2023/08/29 08:36:54;;;;;;;5.38;4.25;;;24.30;99.90;;;;;;4435883;27;658669;-72
2023/08/29 08:39:41;;;;;;;6.93;3.97;;;24.90;99.90;;;;;;4454170;27;658501;-73
2023/08/29 08:42:30;;;;;;;6.60;4.70;;;25.30;99.90;;;;;;4435725;27;658756;-72
2023/08/29 08:45:17;;;;;;;9.05;5.03;;;25.30;99.90;;;;;;4456559;27;658618;-72
2023/08/29 08:48:05;;;;;;;9.98;5.57;;;25.60;99.90;;;;;;4463386;27;659177;-72
2023/08/29 08:50:52;;;;;;;13.60;5.40;;;25.70;99.90;;;;;;4441197;27;658587;-72
2023/08/29 08:53:40;;;;;;;6.47;3.60;;;25.70;99.90;;;;;;4454983;27;660483;-72
2023/08/29 08:56:27;;;;;;;8.45;3.67;;;25.80;99.90;;;;;;4450496;27;658744;-71
2023/08/29 08:59:16;;;;;;;3.78;2.92;;;25.80;99.90;;;;;;4459609;27;658955;-71
2023/08/29 09:02:03;;;;;;;6.00;3.50;;;25.80;99.90;;;;;;4440106;27;659152;-71
2023/08/29 09:04:51;;;;;;;4.22;3.45;;;26.00;99.90;;;;;;4461491;27;660134;-71
2023/08/29 09:07:39;;;;;;;3.67;2.92;;;26.40;99.90;;;;;;4441026;27;658561;-72
2023/08/29 09:10:26;;;;;;;6.45;2.90;;;26.50;99.90;;;;;;4456134;27;658866;-71
2023/08/29 09:13:16;;;;;;;3.58;2.78;;;26.20;99.90;;;;;;4436999;27;660185;-71
2023/08/29 09:16:05;;;;;;;3.90;3.15;;;26.10;99.90;;;;;;4438528;27;658768;-71
2023/08/29 09:18:52;;;;;;;4.75;2.83;;;26.20;99.90;;;;;;4454628;27;658652;-71
2023/08/29 09:21:43;;;;;;;4.40;3.00;;;26.20;99.90;;;;;;4458637;27;659395;-71
2023/08/29 09:24:33;;;;;;;7.93;2.93;;;26.40;99.90;;;;;;4433715;27;660076;-71
2023/08/29 09:27:20;;;;;;;5.50;2.80;;;26.40;99.90;;;;;;4437714;27;659394;-71
2023/08/29 09:30:10;;;;;;;5.30;2.83;;;26.40;99.90;;;;;;4440788;27;658792;-71
2023/08/29 09:33:07;;;;;;;6.30;3.00;;;26.00;99.90;;;;;;4443932;27;658664;-71
2023/08/29 09:35:55;;;;;;;6.03;2.97;;;25.60;99.90;;;;;;4413676;27;659855;-71
2023/08/29 09:38:43;;;;;;;3.47;3.00;;;25.40;99.90;;;;;;4456949;27;659756;-71
2023/08/29 09:41:30;;;;;;;3.20;2.90;;;25.20;99.90;;;;;;4456972;27;658657;-71
2023/08/29 09:44:18;;;;;;;4.93;3.15;;;25.00;99.90;;;;;;4434033;27;659817;-71
2023/08/29 09:47:05;;;;;;;7.97;3.35;;;25.00;99.90;;;;;;4458699;27;659924;-70
2023/08/29 09:49:54;;;;;;;4.97;3.33;;;25.00;99.90;;;;;;4442888;27;659051;-71
2023/08/29 09:52:41;;;;;;;4.18;3.00;;;25.00;99.90;;;;;;4461045;27;658205;-71
2023/08/29 09:55:29;;;;;;;7.20;3.40;;;24.90;99.90;;;;;;4441335;27;658917;-71
2023/08/29 09:58:17;;;;;;;6.65;3.70;;;24.50;99.90;;;;;;4458311;27;660015;-70
2023/08/29 10:01:05;;;;;;;4.93;3.17;;;24.60;99.90;;;;;;4437155;27;659622;-71
2023/08/29 10:03:52;;;;;;;8.55;3.67;;;24.70;99.90;;;;;;4462827;27;658181;-70
2023/08/29 10:06:40;;;;;;;5.28;3.42;;;25.00;99.90;;;;;;4438499;27;658772;-71
2023/08/29 10:09:28;;;;;;;5.25;3.58;;;25.00;99.90;;;;;;4436778;27;659069;-71
2023/08/29 10:12:15;;;;;;;4.40;3.42;;;25.20;99.90;;;;;;4453218;27;659223;-71
2023/08/29 10:15:04;;;;;;;3.70;3.30;;;25.30;99.90;;;;;;4451451;27;658474;-71
2023/08/29 10:17:52;;;;;;;6.10;3.70;;;25.10;99.90;;;;;;4457177;27;658917;-71
2023/08/29 10:20:43;;;;;;;3.88;3.22;;;25.20;99.90;;;;;;4439540;27;659319;-71
2023/08/29 10:23:31;;;;;;;7.28;3.83;;;25.30;99.90;;;;;;4425823;27;659233;-71
2023/08/29 10:26:19;;;;;;;4.88;3.60;;;25.40;99.90;;;;;;4438687;27;659023;-70
2023/08/29 10:29:06;;;;;;;5.35;3.28;;;25.60;99.90;;;;;;4450970;27;659725;-70
2023/08/29 10:31:53;;;;;;;4.40;3.50;;;25.40;99.90;;;;;;4428893;27;659529;-70
2023/08/29 10:34:41;;;;;;;3.88;3.40;;;25.40;99.90;;;;;;4452627;27;659154;-70
2023/08/29 10:37:28;;;;;;;5.50;3.47;;;25.50;99.90;;;;;;4438850;27;658332;-70
2023/08/29 10:40:18;;;;;;;4.63;3.28;;;25.50;99.90;;;;;;4451080;27;659412;-70
2023/08/29 10:43:05;;;;;;;7.18;3.00;;;25.60;99.90;;;;;;4423595;27;659645;-70
2023/08/29 10:45:56;;;;;;;4.63;3.33;;;25.70;99.90;;;;;;4429893;27;659093;-71
2023/08/29 10:48:51;;;;;;;4.95;3.33;;;25.70;99.90;;;;;;4433618;27;658621;-70
2023/08/29 10:51:38;;;;;;;3.83;3.17;;;25.80;99.90;;;;;;4418290;28;659177;-70
2023/08/29 10:54:30;;;;;;;4.75;3.40;;;25.90;99.90;;;;;;4466210;28;659404;-70
2023/08/29 10:57:28;;;;;;;6.07;3.50;;;25.90;99.90;;;;;;4425149;27;658425;-71
2023/08/29 11:00:17;;;;;;;6.03;2.85;;;25.90;99.90;;;;;;4434425;27;658882;-70
2023/08/29 11:03:04;;;;;;;6.97;3.05;;;25.70;99.90;;;;;;4443476;27;659102;-70
2023/08/29 11:05:57;;;;;;;5.50;2.72;;;25.30;99.90;;;;;;4458818;27;659144;-70
2023/08/29 11:08:44;;;;;;;4.15;2.35;;;25.50;99.90;;;;;;4433946;27;658809;-70
2023/08/29 11:11:31;;;;;;;5.80;3.00;;;25.30;99.90;;;;;;4459734;27;659260;-70
2023/08/29 11:14:20;;;;;;;4.35;3.35;;;25.70;99.90;;;;;;4432740;27;659641;-70
2023/08/29 11:17:11;;;;;;;7.70;3.33;;;25.60;99.90;;;;;;4455626;27;659026;-70
2023/08/29 11:20:01;;;;;;;4.23;3.80;;;25.40;99.90;;;;;;4440510;27;658731;-70
2023/08/29 11:22:51;;;;;;;9.50;3.75;;;25.00;99.90;;;;;;4439201;27;659566;-70
2023/08/29 11:25:38;;;;;;;8.27;3.90;;;24.80;99.90;;;;;;4430868;27;658734;-69
2023/08/29 11:28:26;;;;;;;5.07;4.20;;;24.80;99.90;;;;;;4460631;27;659509;-70
2023/08/29 11:31:18;;;;;;;6.75;3.80;;;24.70;99.90;;;;;;4439479;27;659151;-69
2023/08/29 11:34:05;;;;;;;6.30;4.28;;;24.70;99.90;;;;;;4433452;27;659315;-70
2023/08/29 11:36:53;;;;;;;6.45;4.07;;;24.80;99.90;;;;;;4434131;27;658947;-70
2023/08/29 11:39:40;;;;;;;5.13;4.20;;;24.90;99.90;;;;;;4455309;27;660318;-70
2023/08/29 11:42:29;;;;;;;6.68;4.40;;;24.80;99.90;;;;;;4445527;27;658814;-70
2023/08/29 11:45:16;;;;;;;8.90;4.10;;;24.60;99.90;;;;;;4457858;27;659417;-70
2023/08/29 11:48:05;;;;;;;6.30;4.35;;;24.70;99.90;;;;;;4436076;27;659450;-70
2023/08/29 11:50:54;;;;;;;5.03;4.30;;;24.70;99.90;;;;;;4440908;27;659616;-70
2023/08/29 11:53:41;;;;;;;7.50;4.40;;;24.70;99.90;;;;;;4453979;27;658979;-69
2023/08/29 11:56:29;;;;;;;6.43;4.03;;;24.60;99.90;;;;;;4433565;27;658679;-70
2023/08/29 11:59:16;;;;;;;10.40;4.10;;;24.60;99.90;;;;;;4459309;27;659063;-70
2023/08/29 12:02:03;;;;;;;7.30;4.25;;;24.40;99.90;;;;;;4433115;28;659977;-70
2023/08/29 12:04:56;;;;;;;8.07;4.88;;;24.30;99.90;;;;;;4455280;27;659771;-70
2023/08/29 12:07:44;;;;;;;10.95;4.72;;;24.30;99.90;;;;;;4442972;27;659272;-69
2023/08/29 12:10:31;;;;;;;8.00;4.40;;;23.90;99.90;;;;;;4454680;27;660940;-70
2023/08/29 12:13:18;;;;;;;7.70;5.00;;;23.70;99.90;;;;;;4435764;28;658657;-70
2023/08/29 12:16:13;;;;;;;6.57;4.63;;;23.60;99.90;;;;;;4458532;28;659243;-69
2023/08/29 12:19:07;;;;;;;7.55;4.40;;;23.60;99.90;;;;;;4436959;28;659280;-69
2023/08/29 12:21:55;;;;;;;5.90;4.50;;;23.60;99.90;;;;;;4437657;27;658440;-69
2023/08/29 12:24:52;;;;;;;9.38;4.82;;;23.60;99.90;;;;;;4446270;27;659240;-70
2023/08/29 12:27:39;;;;;;;9.63;5.00;;;23.70;99.90;;;;;;4419349;27;659073;-70
2023/08/29 12:30:28;;;;;;;9.48;4.72;;;23.70;99.90;;;;;;4469759;27;657926;-70
2023/08/29 12:33:15;;;;;;;6.75;4.78;;;23.70;99.90;;;;;;4439885;27;659471;-70
2023/08/29 12:36:04;;;;;;;8.65;4.80;;;23.80;99.90;;;;;;4445457;27;659059;-70
2023/08/29 12:38:53;;;;;;;8.02;4.40;;;23.80;99.90;;;;;;4460353;27;659541;-69
2023/08/29 12:41:40;;;;;;;6.88;4.75;;;23.80;99.90;;;;;;4441952;27;658843;-69
2023/08/29 12:44:27;;;;;;;5.05;4.00;;;23.60;99.90;;;;;;4456619;27;658323;-70
2023/08/29 12:47:15;;;;;;;5.95;4.18;;;23.40;99.90;;;;;;4468363;27;658999;-71
2023/08/29 12:50:03;;;;;;;8.55;4.43;;;23.10;99.90;;;;;;4463553;27;659299;-69
2023/08/29 12:52:50;;;;;;;9.30;4.60;;;23.20;99.90;;;;;;4466041;27;660245;-70
2023/08/29 12:55:39;;;;;;;9.65;4.90;;;23.30;99.90;;;;;;4458090;27;659415;-70
2023/08/29 12:58:26;;;;;;;6.50;5.00;;;23.50;99.90;;;;;;4459030;27;658697;-70
2023/08/29 13:01:13;;;;;;;6.95;5.72;;;23.60;99.90;;;;;;4442485;27;659023;-70
2023/08/29 13:04:01;;;;;;;11.88;6.60;;;23.50;99.90;;;;;;4476221;27;659372;-70
2023/08/29 13:06:48;;;;;;;11.00;7.93;;;23.20;99.90;;;;;;4442817;28;660110;-70
2023/08/29 13:09:37;;;;;;;12.07;6.78;;;22.30;99.90;;;;;;4443943;28;660069;-69
2023/08/29 13:12:26;;;;;;;15.70;7.07;;;22.20;99.90;;;;;;4416172;28;659969;-69
2023/08/29 13:15:16;;;;;;;13.95;7.60;;;22.30;99.90;;;;;;4422568;28;659961;-70
2023/08/29 13:18:03;;;;;;;12.45;7.60;;;22.20;99.90;;;;;;4423023;27;659934;-70
2023/08/29 13:20:51;;;;;;;14.73;8.50;;;22.00;99.90;;;;;;4445495;28;660115;-69
2023/08/29 13:23:38;;;;;;;11.20;8.37;;;21.80;99.90;;;;;;4439743;27;659439;-70
2023/08/29 13:26:25;;;;;;;13.90;9.13;;;21.50;99.90;;;;;;4451187;27;660557;-69
2023/08/29 13:29:14;;;;;;;15.37;8.77;;;21.30;99.90;;;;;;4432880;27;659569;-69
2023/08/29 13:32:01;;;;;;;13.90;8.70;;;21.40;99.90;;;;;;4447540;28;658846;-69
2023/08/29 13:34:48;;;;;;;17.50;10.80;;;21.60;99.90;;;;;;4440484;28;659796;-70
2023/08/29 13:37:36;;;;;;;17.87;10.23;;;21.60;99.90;;;;;;4442148;28;661237;-70
2023/08/29 13:40:23;;;;;;;21.63;11.07;;;21.50;99.90;;;;;;4434683;28;661191;-70
2023/08/29 13:43:10;;;;;;;17.63;11.20;;;21.50;99.90;;;;;;4437597;28;661227;-69
2023/08/29 13:45:59;;;;;;;21.10;10.17;;;21.30;99.90;;;;;;4423945;28;660654;-70
2023/08/29 13:48:46;;;;;;;18.13;11.67;;;21.30;99.90;;;;;;4444447;28;661183;-70
2023/08/29 13:51:33;;;;;;;20.80;13.37;;;21.20;99.90;;;;;;4435337;28;660909;-70
2023/08/29 13:54:20;;;;;;;20.20;12.00;;;21.20;99.90;;;;;;4441630;28;661616;-69
2023/08/29 13:57:08;;;;;;;24.67;13.60;;;21.30;99.90;;;;;;4412313;28;660900;-71
2023/08/29 13:59:55;;;;;;;22.47;14.00;;;21.50;99.90;;;;;;4436989;28;661438;-70
2023/08/29 14:02:46;;;;;;;23.33;13.33;;;21.40;99.90;;;;;;4446445;28;660329;-70
2023/08/29 14:05:34;;;;;;;22.70;14.10;;;21.30;99.90;;;;;;4437865;27;661329;-70
2023/08/29 14:08:22;;;;;;;21.50;13.43;;;21.40;99.90;;;;;;4463555;27;660760;-70
2023/08/29 14:11:09;;;;;;;23.80;14.37;;;21.60;99.90;;;;;;4436471;27;660894;-70
2023/08/29 14:13:57;;;;;;;26.20;15.10;;;21.80;99.90;;;;;;4456869;27;660554;-70